La Selva Beach, California
Current Conditions -  °F | °C
As of 9:53 PM on Saturday 22 Nov 2014 (Local Time) from KWVI Reporting Station
Haze Haze  
Wind Chill: 52°   Ceiling: Unl
Heat Index: 52°   Visibility: 6mi
Dew Point: 50°   Wind: 3mph
Humidity: 93%   Direction: NA
Pressure: 30.22"   Gusts: NA
Location:  36.9274°N, 121.747°W
Report Text: KWVI 230553Z AUTO VRB03KT 6SM BR CLR 11/10 A3022 RMK AO2 SLP231 T01110100 10183 20111 51015
Loading
Personal Weather Stations






























Interactive Weather Map New forecast layout! Learn more

10-Day Weather Forecast

Advertisements
Track Severe Weather on mobile